La rose des vents
Donnes mto: Semaine 05/03/07 - 11/03/07 (S 10)
Date Horaire Temp. E. Hum. E. P.atmo. Pluie Vent 1mn Direction Ensoleilleme Ev.Tr. Solaire P. de rose Temp au vent Rafales
05/03/2007 00:00 11,5 C 93 % 1019,2 hPa 0,0 l/m 1,7 km/h (1 Bft) NO 0,00 h 0,000 mm 0 W/m 10,4 C 11,5 C 3,7 km/h (1 Bft)
05/03/2007 01:00 10,6 C 90 % 1019,3 hPa 0,0 l/m 1,8 km/h (1 Bft) NO 0,00 h 0,000 mm 0 W/m 9,1 C 10,6 C 3,0 km/h (1 Bft)
05/03/2007 02:00 9,8 C 89 % 1019,1 hPa 0,0 l/m 0,9 km/h (0 Bft) NO 0,00 h 0,025 mm 0 W/m 8,2 C 9,8 C 1,5 km/h (1 Bft)
05/03/2007 03:00 9,6 C 90 % 1018,8 hPa 0,0 l/m 1,4 km/h (1 Bft) NO 0,00 h 0,000 mm 0 W/m 8,0 C 9,6 C 2,7 km/h (1 Bft)
05/03/2007 04:00 9,1 C 91 % 1018,8 hPa 0,0 l/m 2,0 km/h (1 Bft) N-NO 0,00 h 0,000 mm 0 W/m 7,8 C 9,1 C 4,0 km/h (1 Bft)
05/03/2007 05:00 8,8 C 91 % 1018,8 hPa 0,0 l/m 3,3 km/h (1 Bft) NE 0,00 h 0,000 mm 0 W/m 7,4 C 8,6 C 5,9 km/h (2 Bft)
05/03/2007 06:00 9,8 C 80 % 1019,3 hPa 0,0 l/m 1,4 km/h (1 Bft) NE 0,00 h 0,025 mm 5 W/m 6,5 C 9,7 C 2,7 km/h (1 Bft)
05/03/2007 07:00 10,3 C 77 % 1019,8 hPa 0,0 l/m 0,4 km/h (0 Bft) NE 0,47 h 0,000 mm 54 W/m 6,6 C 10,3 C 1,3 km/h (1 Bft)
05/03/2007 08:00 11,4 C 74 % 1020,3 hPa 0,0 l/m 2,0 km/h (1 Bft) N-NO 0,33 h 0,025 mm 137 W/m 6,9 C 11,4 C 3,7 km/h (1 Bft)
05/03/2007 09:00 13,5 C 67 % 1020,4 hPa 0,0 l/m 1,4 km/h (1 Bft) N 0,98 h 0,076 mm 368 W/m 7,5 C 13,5 C 3,4 km/h (1 Bft)
05/03/2007 10:00 15,4 C 69 % 1020,5 hPa 0,0 l/m 8,6 km/h (2 Bft) E-NE 0,78 h 0,203 mm 390 W/m 9,6 C 15,4 C 12,6 km/h (3 Bft)
05/03/2007 11:00 16,3 C 67 % 1020,5 hPa 0,0 l/m 10,8 km/h (2 Bft) E 1,00 h 0,254 mm 446 W/m 10,2 C 16,3 C 15,1 km/h (3 Bft)
05/03/2007 12:00 16,2 C 67 % 1020,7 hPa 0,0 l/m 6,6 km/h (2 Bft) E 1,00 h 0,279 mm 483 W/m 10,0 C 16,2 C 11,1 km/h (2 Bft)
05/03/2007 13:00 16,7 C 65 % 1020,4 hPa 0,0 l/m 5,5 km/h (1 Bft) E 1,00 h 0,279 mm 572 W/m 10,0 C 16,7 C 10,0 km/h (2 Bft)
05/03/2007 14:00 17,3 C 64 % 1019,8 hPa 0,0 l/m 6,3 km/h (2 Bft) E 0,92 h 0,330 mm 488 W/m 10,3 C 17,3 C 10,5 km/h (2 Bft)
05/03/2007 15:00 16,6 C 69 % 1019,5 hPa 0,0 l/m 9,3 km/h (2 Bft) E-NE 1,00 h 0,305 mm 389 W/m 10,8 C 16,6 C 14,4 km/h (3 Bft)
05/03/2007 16:00 14,3 C 83 % 1019,8 hPa 0,0 l/m 4,9 km/h (1 Bft) E 0,10 h 0,254 mm 98 W/m 11,4 C 14,3 C 10,1 km/h (2 Bft)
05/03/2007 17:00 13,0 C 89 % 1020,2 hPa 0,0 l/m 3,5 km/h (1 Bft) E-SE 0,00 h 0,076 mm 25 W/m 11,3 C 13,0 C 6,4 km/h (2 Bft)
05/03/2007 18:00 12,7 C 91 % 1020,7 hPa 0,0 l/m 1,8 km/h (1 Bft) E 0,00 h 0,025 mm 8 W/m 11,2 C 12,7 C 3,4 km/h (1 Bft)
05/03/2007 19:00 12,5 C 91 % 1021,1 hPa 0,0 l/m 0,7 km/h (0 Bft) NO 0,00 h 0,000 mm 0 W/m 11,1 C 12,5 C 1,3 km/h (1 Bft)
05/03/2007 20:00 12,6 C 92 % 1021,3 hPa 0,0 l/m 0,3 km/h (0 Bft) NO 0,00 h 0,000 mm 0 W/m 11,3 C 12,6 C 1,2 km/h (1 Bft)
05/03/2007 21:00 12,7 C 93 % 1021,2 hPa 0,0 l/m 0,8 km/h (0 Bft) SE 0,00 h 0,000 mm 0 W/m 11,5 C 12,7 C 2,3 km/h (1 Bft)
05/03/2007 22:00 11,9 C 93 % 1021,1 hPa 0,0 l/m 0,1 km/h (0 Bft) SO 0,00 h 0,000 mm 0 W/m 10,8 C 11,9 C 0,4 km/h (0 Bft)
05/03/2007 23:00 11,3 C 93 % 1021,3 hPa 0,0 l/m 1,2 km/h (1 Bft) SO 0,00 h 0,000 mm 0 W/m 10,2 C 11,3 C 2,9 km/h (1 Bft)
06/03/2007 00:00 10,6 C 94 % 1021,1 hPa 0,0 l/m 5,8 km/h (2 Bft) O-NO 0,00 h 0,000 mm 0 W/m 9,6 C 10,6 C 8,4 km/h (2 Bft)
06/03/2007 01:00 9,8 C 94 % 1021,0 hPa 0,0 l/m 3,6 km/h (1 Bft) O-NO 0,00 h 0,025 mm 0 W/m 8,9 C 9,7 C 5,8 km/h (2 Bft)
06/03/2007 02:00 9,6 C 93 % 1020,8 hPa 0,0 l/m 3,7 km/h (1 Bft) O-NO 0,00 h 0,000 mm 0 W/m 8,6 C 9,5 C 6,0 km/h (2 Bft)
06/03/2007 03:00 9,6 C 91 % 1020,3 hPa 0,0 l/m 3,9 km/h (1 Bft) NO 0,00 h 0,000 mm 0 W/m 8,2 C 9,4 C 5,9 km/h (2 Bft)
06/03/2007 04:00 9,6 C 88 % 1020,5 hPa 0,0 l/m 10,5 km/h (2 Bft) O-NO 0,00 h 0,025 mm 0 W/m 7,8 C 8,1 C 14,9 km/h (3 Bft)
06/03/2007 05:00 10,3 C 84 % 1020,9 hPa 0,0 l/m 7,5 km/h (2 Bft) O 0,00 h 0,025 mm 0 W/m 7,7 C 9,9 C 9,7 km/h (2 Bft)
06/03/2007 06:00 10,2 C 83 % 1020,7 hPa 0,0 l/m 4,3 km/h (1 Bft) NO 0,00 h 0,025 mm 0 W/m 7,5 C 10,1 C 6,5 km/h (2 Bft)
06/03/2007 07:00 11,4 C 82 % 1020,5 hPa 0,0 l/m 0,7 km/h (0 Bft) NE 0,00 h 0,025 mm 27 W/m 8,5 C 11,4 C 2,0 km/h (1 Bft)
06/03/2007 08:00 12,0 C 81 % 1021,2 hPa 0,0 l/m 0,7 km/h (0 Bft) N 0,00 h 0,025 mm 63 W/m 8,9 C 12,0 C 1,6 km/h (1 Bft)
06/03/2007 09:00 12,8 C 81 % 1021,4 hPa 0,0 l/m 3,3 km/h (1 Bft) NE 0,00 h 0,025 mm 113 W/m 9,6 C 12,8 C 5,4 km/h (1 Bft)
06/03/2007 10:00 13,7 C 79 % 1021,0 hPa 0,0 l/m 6,5 km/h (2 Bft) E-NE 0,00 h 0,076 mm 124 W/m 10,2 C 13,7 C 8,8 km/h (2 Bft)
06/03/2007 11:00 13,6 C 85 % 1020,7 hPa 0,0 l/m 12,6 km/h (3 Bft) E-NE 0,00 h 0,076 mm 93 W/m 11,0 C 13,6 C 17,5 km/h (3 Bft)
06/03/2007 12:00 13,5 C 87 % 1020,4 hPa 0,0 l/m 15,2 km/h (3 Bft) E-NE 0,00 h 0,076 mm 98 W/m 11,5 C 13,5 C 20,5 km/h (4 Bft)
06/03/2007 13:00 13,2 C 90 % 1019,9 hPa 0,0 l/m 12,0 km/h (2 Bft) E 0,00 h 0,076 mm 48 W/m 11,5 C 13,2 C 16,8 km/h (3 Bft)
06/03/2007 14:00 12,6 C 91 % 1019,2 hPa 0,0 l/m 9,4 km/h (2 Bft) E 0,00 h 0,051 mm 33 W/m 11,2 C 12,6 C 14,2 km/h (3 Bft)
06/03/2007 15:00 12,5 C 91 % 1018,4 hPa 0,0 l/m 10,7 km/h (2 Bft) E 0,00 h 0,025 mm 56 W/m 11,0 C 12,5 C 14,7 km/h (3 Bft)
06/03/2007 16:00 12,4 C 91 % 1017,6 hPa 0,0 l/m 10,0 km/h (2 Bft) E 0,00 h 0,051 mm 17 W/m 10,9 C 12,4 C 13,7 km/h (3 Bft)
06/03/2007 17:00 12,1 C 92 % 1017,2 hPa 0,0 l/m 7,1 km/h (2 Bft) E 0,00 h 0,025 mm 5 W/m 10,8 C 12,1 C 9,9 km/h (2 Bft)
06/03/2007 18:00 12,0 C 93 % 1016,8 hPa 0,0 l/m 6,2 km/h (2 Bft) E-NE 0,00 h 0,025 mm 0 W/m 10,9 C 12,0 C 8,7 km/h (2 Bft)
06/03/2007 19:00 11,8 C 94 % 1016,3 hPa 1,2 l/m 6,4 km/h (2 Bft) E 0,00 h 0,000 mm 0 W/m 10,8 C 11,8 C 8,9 km/h (2 Bft)
06/03/2007 20:00 11,0 C 95 % 1016,0 hPa 0,6 l/m 4,3 km/h (1 Bft) S-SO 0,00 h 0,025 mm 0 W/m 10,3 C 11,0 C 6,3 km/h (2 Bft)
06/03/2007 21:00 10,9 C 96 % 1015,5 hPa 0,2 l/m 1,6 km/h (1 Bft) SO 0,00 h 0,000 mm 0 W/m 10,3 C 10,9 C 3,6 km/h (1 Bft)
06/03/2007 22:00 10,8 C 96 % 1015,1 hPa 0,2 l/m 4,9 km/h (1 Bft) O-SO 0,00 h 0,000 mm 0 W/m 10,2 C 10,8 C 7,1 km/h (2 Bft)
06/03/2007 23:00 10,4 C 97 % 1014,4 hPa 0,0 l/m 8,5 km/h (2 Bft) O-SO 0,00 h 0,000 mm 0 W/m 9,9 C 10,4 C 11,2 km/h (2 Bft)
07/03/2007 00:00 10,2 C 97 % 1013,8 hPa 0,2 l/m 8,5 km/h (2 Bft) O-SO 0,00 h 0,000 mm 0 W/m 9,8 C 10,2 C 11,5 km/h (2 Bft)
07/03/2007 01:00 9,6 C 97 % 1013,2 hPa 1,6 l/m 4,3 km/h (1 Bft) O 0,00 h 0,000 mm 0 W/m 9,1 C 9,3 C 6,0 km/h (2 Bft)
07/03/2007 02:00 9,1 C 96 % 1012,8 hPa 2,2 l/m 7,0 km/h (2 Bft) O-NO 0,00 h 0,000 mm 0 W/m 8,5 C 8,3 C 9,4 km/h (2 Bft)
07/03/2007 03:00 8,7 C 96 % 1011,6 hPa 0,0 l/m 3,5 km/h (1 Bft) N-NO 0,00 h 0,000 mm 0 W/m 8,1 C 8,5 C 5,5 km/h (1 Bft)
07/03/2007 04:00 8,5 C 96 % 1010,7 hPa 0,2 l/m 4,9 km/h (1 Bft) S-SO 0,00 h 0,000 mm 0 W/m 7,9 C 7,8 C 6,5 km/h (2 Bft)
07/03/2007 05:00 8,2 C 97 % 1010,4 hPa 0,2 l/m 1,0 km/h (0 Bft) O-NO 0,00 h 0,000 mm 0 W/m 7,8 C 8,2 C 2,0 km/h (1 Bft)
07/03/2007 06:00 8,1 C 97 % 1009,9 hPa 0,8 l/m 0,5 km/h (0 Bft) O-NO 0,00 h 0,000 mm 0 W/m 7,7 C 8,1 C 1,0 km/h (0 Bft)
07/03/2007 07:00 8,1 C 97 % 1009,5 hPa 0,0 l/m 2,0 km/h (1 Bft) NO 0,00 h 0,000 mm 19 W/m 7,6 C 8,1 C 3,6 km/h (1 Bft)
07/03/2007 08:00 8,3 C 97 % 1009,2 hPa 0,0 l/m 1,8 km/h (1 Bft) NO 0,00 h 0,000 mm 32 W/m 7,8 C 8,3 C 3,7 km/h (1 Bft)
07/03/2007 09:00 9,2 C 96 % 1008,4 hPa 0,0 l/m 0,4 km/h (0 Bft) NO 0,13 h 0,025 mm 175 W/m 8,6 C 9,2 C 1,1 km/h (1 Bft)
07/03/2007 10:00 11,3 C 87 % 1007,8 hPa 0,0 l/m 1,4 km/h (1 Bft) E-NE 0,28 h 0,076 mm 284 W/m 9,2 C 11,3 C 3,0 km/h (1 Bft)
07/03/2007 11:00 13,1 C 78 % 1006,9 hPa 0,0 l/m 2,9 km/h (1 Bft) E 0,95 h 0,152 mm 686 W/m 9,4 C 13,1 C 5,4 km/h (1 Bft)
07/03/2007 12:00 13,6 C 74 % 1006,3 hPa 0,0 l/m 2,9 km/h (1 Bft) E 0,33 h 0,330 mm 425 W/m 9,1 C 13,6 C 5,5 km/h (1 Bft)
07/03/2007 13:00 14,1 C 74 % 1005,3 hPa 0,0 l/m 4,5 km/h (1 Bft) E 0,52 h 0,229 mm 485 W/m 9,5 C 14,1 C 7,8 km/h (2 Bft)
07/03/2007 14:00 12,9 C 77 % 1004,4 hPa 0,0 l/m 3,4 km/h (1 Bft) SE 0,00 h 0,279 mm 153 W/m 8,9 C 12,9 C 6,4 km/h (2 Bft)
07/03/2007 15:00 12,7 C 80 % 1004,1 hPa 0,0 l/m 4,0 km/h (1 Bft) E-NE 0,22 h 0,102 mm 181 W/m 9,3 C 12,7 C 6,3 km/h (2 Bft)
07/03/2007 16:00 11,6 C 86 % 1003,8 hPa 1,8 l/m 2,4 km/h (1 Bft) E-NE 0,00 h 0,102 mm 46 W/m 9,3 C 11,6 C 4,0 km/h (1 Bft)
07/03/2007 17:00 11,3 C 93 % 1003,5 hPa 0,0 l/m 1,1 km/h (0 Bft) S 0,00 h 0,025 mm 59 W/m 10,2 C 11,3 C 2,3 km/h (1 Bft)
07/03/2007 18:00 11,0 C 94 % 1003,3 hPa 0,0 l/m 0,1 km/h (0 Bft) S 0,00 h 0,025 mm 8 W/m 10,1 C 11,0 C 0,8 km/h (0 Bft)
07/03/2007 19:00 10,6 C 95 % 1003,4 hPa 0,0 l/m 0,3 km/h (0 Bft) S-SE 0,00 h 0,000 mm 0 W/m 9,9 C 10,6 C 1,5 km/h (1 Bft)
07/03/2007 20:00 10,3 C 95 % 1003,3 hPa 0,0 l/m 1,0 km/h (0 Bft) N 0,00 h 0,000 mm 0 W/m 9,5 C 10,3 C 2,6 km/h (1 Bft)
07/03/2007 21:00 10,1 C 96 % 1003,2 hPa 0,0 l/m 4,8 km/h (1 Bft) N-NE 0,00 h 0,000 mm 0 W/m 9,5 C 10,0 C 7,7 km/h (2 Bft)
07/03/2007 22:00 9,7 C 96 % 1003,3 hPa 0,0 l/m 2,6 km/h (1 Bft) N-NE 0,00 h 0,000 mm 0 W/m 9,1 C 9,7 C 4,4 km/h (1 Bft)
07/03/2007 23:00 9,1 C 95 % 1003,4 hPa 0,0 l/m 1,8 km/h (1 Bft) N 0,00 h 0,000 mm 0 W/m 8,4 C 9,0 C 3,8 km/h (1 Bft)
08/03/2007 00:00 8,6 C 96 % 1003,4 hPa 0,0 l/m 0,9 km/h (0 Bft) N 0,00 h 0,000 mm 0 W/m 7,9 C 8,6 C 3,0 km/h (1 Bft)
08/03/2007 01:00 8,3 C 95 % 1004,4 hPa 0,0 l/m 2,2 km/h (1 Bft) N 0,00 h 0,000 mm 0 W/m 7,6 C 8,2 C 4,4 km/h (1 Bft)
08/03/2007 02:00 8,6 C 95 % 1004,9 hPa 0,0 l/m 2,7 km/h (1 Bft) N 0,00 h 0,000 mm 0 W/m 7,9 C 8,5 C 5,0 km/h (1 Bft)
08/03/2007 03:00 9,2 C 94 % 1004,9 hPa 0,0 l/m 2,6 km/h (1 Bft) O-NO 0,00 h 0,000 mm 0 W/m 8,3 C 9,1 C 4,5 km/h (1 Bft)
08/03/2007 04:00 9,3 C 90 % 1005,4 hPa 0,0 l/m 0,9 km/h (0 Bft) NO 0,00 h 0,000 mm 0 W/m 7,7 C 9,3 C 2,3 km/h (1 Bft)
08/03/2007 05:00 9,5 C 87 % 1006,1 hPa 0,0 l/m 0,9 km/h (0 Bft) NO 0,00 h 0,000 mm 0 W/m 7,4 C 9,5 C 1,8 km/h (1 Bft)
08/03/2007 06:00 9,3 C 85 % 1006,8 hPa 0,0 l/m 2,2 km/h (1 Bft) NO 0,00 h 0,025 mm 5 W/m 6,9 C 9,2 C 3,4 km/h (1 Bft)
08/03/2007 07:00 9,5 C 84 % 1007,6 hPa 0,0 l/m 5,4 km/h (1 Bft) O 0,10 h 0,000 mm 45 W/m 6,9 C 9,0 C 6,9 km/h (2 Bft)
08/03/2007 08:00 10,6 C 80 % 1008,5 hPa 0,0 l/m 0,9 km/h (0 Bft) O-NO 0,75 h 0,025 mm 171 W/m 7,4 C 10,6 C 2,1 km/h (1 Bft)
08/03/2007 09:00 12,7 C 76 % 1009,0 hPa 0,0 l/m 3,2 km/h (1 Bft) S 0,90 h 0,076 mm 340 W/m 8,6 C 12,7 C 5,3 km/h (1 Bft)
08/03/2007 10:00 13,8 C 71 % 1009,6 hPa 0,0 l/m 3,5 km/h (1 Bft) E 0,97 h 0,178 mm 442 W/m 8,6 C 13,8 C 6,1 km/h (2 Bft)
08/03/2007 11:00 15,0 C 68 % 1009,9 hPa 0,0 l/m 5,4 km/h (1 Bft) S 1,00 h 0,229 mm 549 W/m 9,2 C 15,0 C 9,4 km/h (2 Bft)
08/03/2007 12:00 15,8 C 70 % 1010,6 hPa 0,0 l/m 6,4 km/h (2 Bft) SE 1,00 h 0,305 mm 639 W/m 10,2 C 15,8 C 11,7 km/h (2 Bft)
08/03/2007 13:00 16,1 C 73 % 1011,1 hPa 0,0 l/m 6,6 km/h (2 Bft) E 0,97 h 0,356 mm 582 W/m 11,2 C 16,1 C 12,0 km/h (2 Bft)
08/03/2007 14:00 16,1 C 73 % 1011,6 hPa 0,0 l/m 6,8 km/h (2 Bft) E 1,00 h 0,330 mm 506 W/m 11,2 C 16,1 C 11,3 km/h (2 Bft)
08/03/2007 15:00 15,5 C 71 % 1012,3 hPa 0,0 l/m 3,6 km/h (1 Bft) SE 1,00 h 0,305 mm 345 W/m 10,3 C 15,5 C 6,8 km/h (2 Bft)
08/03/2007 16:00 15,2 C 65 % 1012,9 hPa 0,0 l/m 5,3 km/h (1 Bft) S-SE 0,85 h 0,203 mm 234 W/m 8,6 C 15,2 C 8,2 km/h (2 Bft)
08/03/2007 17:00 14,5 C 67 % 1013,5 hPa 0,0 l/m 6,3 km/h (2 Bft) S-SO 0,38 h 0,152 mm 86 W/m 8,4 C 14,5 C 8,8 km/h (2 Bft)
08/03/2007 18:00 12,8 C 76 % 1014,5 hPa 0,0 l/m 4,5 km/h (1 Bft) S-SO 0,03 h 0,076 mm 14 W/m 8,6 C 12,8 C 6,0 km/h (2 Bft)
08/03/2007 19:00 11,9 C 81 % 1015,5 hPa 0,0 l/m 7,6 km/h (2 Bft) O-NO 0,00 h 0,025 mm 0 W/m 8,8 C 11,9 C 9,7 km/h (2 Bft)
08/03/2007 20:00 11,3 C 84 % 1016,2 hPa 0,0 l/m 6,4 km/h (2 Bft) O-NO 0,00 h 0,025 mm 0 W/m 8,7 C 11,3 C 8,8 km/h (2 Bft)
08/03/2007 21:00 11,0 C 86 % 1016,8 hPa 0,0 l/m 3,5 km/h (1 Bft) O-NO 0,00 h 0,025 mm 0 W/m 8,7 C 11,0 C 5,7 km/h (1 Bft)
08/03/2007 22:00 11,0 C 85 % 1017,2 hPa 0,0 l/m 4,1 km/h (1 Bft) O-NO 0,00 h 0,025 mm 0 W/m 8,5 C 11,0 C 5,4 km/h (1 Bft)
08/03/2007 23:00 10,9 C 80 % 1017,7 hPa 0,0 l/m 3,3 km/h (1 Bft) O-NO 0,00 h 0,025 mm 0 W/m 7,6 C 10,9 C 5,0 km/h (1 Bft)
09/03/2007 00:00 11,0 C 76 % 1018,3 hPa 0,0 l/m 4,8 km/h (1 Bft) O-NO 0,00 h 0,025 mm 0 W/m 6,9 C 11,0 C 6,4 km/h (2 Bft)
09/03/2007 01:00 10,8 C 70 % 1018,7 hPa 0,0 l/m 4,7 km/h (1 Bft) O-NO 0,00 h 0,025 mm 0 W/m 5,6 C 10,8 C 7,2 km/h (2 Bft)
09/03/2007 02:00 10,4 C 67 % 1018,9 hPa 0,0 l/m 6,0 km/h (2 Bft) O-NO 0,00 h 0,025 mm 0 W/m 4,6 C 10,4 C 9,4 km/h (2 Bft)
09/03/2007 03:00 10,3 C 65 % 1018,8 hPa 0,0 l/m 9,3 km/h (2 Bft) O-NO 0,00 h 0,051 mm 0 W/m 3,9 C 10,1 C 13,3 km/h (3 Bft)
09/03/2007 04:00 10,5 C 63 % 1019,1 hPa 0,0 l/m 5,3 km/h (1 Bft) NO 0,00 h 0,051 mm 0 W/m 3,9 C 10,3 C 7,6 km/h (2 Bft)
09/03/2007 05:00 11,0 C 61 % 1019,6 hPa 0,0 l/m 4,5 km/h (1 Bft) O-NO 0,00 h 0,051 mm 0 W/m 3,8 C 11,0 C 6,6 km/h (2 Bft)
09/03/2007 06:00 10,0 C 64 % 1020,3 hPa 0,0 l/m 1,8 km/h (1 Bft) NO 0,00 h 0,051 mm 5 W/m 3,6 C 10,0 C 3,5 km/h (1 Bft)
09/03/2007 07:00 10,7 C 61 % 1020,5 hPa 0,0 l/m 4,1 km/h (1 Bft) NO 0,33 h 0,025 mm 50 W/m 3,6 C 10,7 C 6,8 km/h (2 Bft)
09/03/2007 08:00 13,4 C 56 % 1021,0 hPa 0,0 l/m 1,1 km/h (1 Bft) NO 1,00 h 0,051 mm 216 W/m 4,8 C 13,4 C 2,5 km/h (1 Bft)
09/03/2007 09:00 15,5 C 53 % 1021,7 hPa 0,0 l/m 1,4 km/h (1 Bft) S 1,00 h 0,127 mm 387 W/m 6,0 C 15,5 C 2,9 km/h (1 Bft)
09/03/2007 10:00 16,7 C 49 % 1021,8 hPa 0,0 l/m 7,3 km/h (2 Bft) S 1,00 h 0,229 mm 521 W/m 5,8 C 16,7 C 10,8 km/h (2 Bft)
09/03/2007 11:00 17,6 C 49 % 1021,5 hPa 0,0 l/m 8,3 km/h (2 Bft) S 1,00 h 0,330 mm 617 W/m 6,6 C 17,6 C 12,8 km/h (3 Bft)
09/03/2007 12:00 18,0 C 51 % 1021,2 hPa 0,0 l/m 8,4 km/h (2 Bft) S 1,00 h 0,406 mm 653 W/m 7,7 C 18,0 C 14,0 km/h (3 Bft)
09/03/2007 13:00 17,9 C 45 % 1020,5 hPa 0,0 l/m 13,3 km/h (3 Bft) S 1,00 h 0,432 mm 626 W/m 6,0 C 17,9 C 18,8 km/h (3 Bft)
09/03/2007 14:00 17,8 C 45 % 1019,9 hPa 0,0 l/m 9,5 km/h (2 Bft) S-SE 1,00 h 0,457 mm 523 W/m 5,6 C 17,8 C 15,2 km/h (3 Bft)
09/03/2007 15:00 16,8 C 48 % 1019,8 hPa 0,0 l/m 10,5 km/h (2 Bft) S-SE 1,00 h 0,356 mm 404 W/m 5,8 C 16,8 C 15,0 km/h (3 Bft)
09/03/2007 16:00 15,7 C 50 % 1019,7 hPa 0,0 l/m 11,5 km/h (2 Bft) S-SO 0,37 h 0,305 mm 183 W/m 5,2 C 15,7 C 16,2 km/h (3 Bft)
09/03/2007 17:00 14,5 C 54 % 1019,8 hPa 0,0 l/m 2,1 km/h (1 Bft) S-SE 0,00 h 0,178 mm 66 W/m 5,4 C 14,5 C 3,9 km/h (1 Bft)
09/03/2007 18:00 13,2 C 60 % 1019,7 hPa 0,0 l/m 0,8 km/h (0 Bft) SE 0,00 h 0,051 mm 13 W/m 5,6 C 13,2 C 2,2 km/h (1 Bft)
09/03/2007 19:00 11,9 C 64 % 1019,4 hPa 0,0 l/m 2,0 km/h (1 Bft) NE 0,00 h 0,025 mm 0 W/m 5,3 C 11,9 C 3,9 km/h (1 Bft)
09/03/2007 20:00 11,2 C 64 % 1018,9 hPa 0,0 l/m 1,2 km/h (1 Bft) N-NE 0,00 h 0,025 mm 0 W/m 4,7 C 11,2 C 2,9 km/h (1 Bft)
09/03/2007 21:00 11,5 C 61 % 1018,1 hPa 0,0 l/m 2,7 km/h (1 Bft) N-NE 0,00 h 0,025 mm 0 W/m 4,2 C 11,5 C 4,6 km/h (1 Bft)
09/03/2007 22:00 10,7 C 63 % 1017,5 hPa 0,0 l/m 1,9 km/h (1 Bft) N 0,00 h 0,051 mm 0 W/m 4,0 C 10,7 C 3,8 km/h (1 Bft)
09/03/2007 23:00 10,8 C 64 % 1016,9 hPa 0,0 l/m 4,1 km/h (1 Bft) N-NE 0,00 h 0,025 mm 0 W/m 4,2 C 10,8 C 6,7 km/h (2 Bft)
10/03/2007 00:00 11,4 C 63 % 1016,3 hPa 0,0 l/m 8,1 km/h (2 Bft) N-NE 0,00 h 0,051 mm 0 W/m 4,6 C 11,4 C 12,7 km/h (3 Bft)
10/03/2007 01:00 11,9 C 59 % 1016,4 hPa 0,0 l/m 8,1 km/h (2 Bft) N-NE 0,00 h 0,051 mm 0 W/m 4,2 C 11,9 C 12,7 km/h (3 Bft)
10/03/2007 02:00 11,2 C 61 % 1016,4 hPa 0,0 l/m 3,0 km/h (1 Bft) N-NE 0,00 h 0,051 mm 0 W/m 3,9 C 11,2 C 5,8 km/h (2 Bft)
10/03/2007 03:00 11,0 C 61 % 1016,5 hPa 0,0 l/m 2,3 km/h (1 Bft) N 0,00 h 0,051 mm 0 W/m 3,7 C 11,0 C 4,9 km/h (1 Bft)
10/03/2007 04:00 11,6 C 59 % 1016,6 hPa 0,0 l/m 0,4 km/h (0 Bft) NE 0,00 h 0,025 mm 0 W/m 3,9 C 11,6 C 1,3 km/h (1 Bft)
10/03/2007 05:00 11,1 C 61 % 1016,8 hPa 0,0 l/m 3,3 km/h (1 Bft) NO 0,00 h 0,025 mm 0 W/m 4,0 C 11,1 C 4,8 km/h (1 Bft)
10/03/2007 06:00 10,7 C 64 % 1017,2 hPa 0,0 l/m 5,0 km/h (1 Bft) SO 0,00 h 0,051 mm 5 W/m 4,1 C 10,7 C 7,0 km/h (2 Bft)
10/03/2007 07:00 10,5 C 64 % 1018,0 hPa 0,0 l/m 4,6 km/h (1 Bft) O 0,00 h 0,025 mm 31 W/m 4,0 C 10,5 C 6,6 km/h (2 Bft)
10/03/2007 08:00 12,2 C 59 % 1018,5 hPa 0,0 l/m 3,6 km/h (1 Bft) O 0,35 h 0,051 mm 147 W/m 4,5 C 12,2 C 5,5 km/h (1 Bft)
10/03/2007 09:00 15,0 C 51 % 1019,2 hPa 0,0 l/m 4,2 km/h (1 Bft) SO 1,00 h 0,102 mm 435 W/m 5,1 C 15,0 C 6,7 km/h (2 Bft)
10/03/2007 10:00 16,4 C 46 % 1019,7 hPa 0,0 l/m 7,9 km/h (2 Bft) SO 1,00 h 0,254 mm 560 W/m 4,9 C 16,4 C 11,5 km/h (2 Bft)
10/03/2007 11:00 16,8 C 46 % 1020,0 hPa 0,0 l/m 14,7 km/h (3 Bft) SO 0,98 h 0,356 mm 594 W/m 5,3 C 16,8 C 19,6 km/h (3 Bft)
10/03/2007 12:00 18,0 C 38 % 1020,0 hPa 0,0 l/m 12,3 km/h (3 Bft) S-SO 1,00 h 0,432 mm 678 W/m 3,6 C 18,0 C 17,1 km/h (3 Bft)
10/03/2007 13:00 18,7 C 39 % 1019,7 hPa 0,0 l/m 9,3 km/h (2 Bft) S-SO 1,00 h 0,483 mm 652 W/m 4,6 C 18,7 C 14,3 km/h (3 Bft)
10/03/2007 14:00 18,7 C 35 % 1019,7 hPa 0,0 l/m 8,6 km/h (2 Bft) S-SE 0,90 h 0,457 mm 569 W/m 3,0 C 18,7 C 13,6 km/h (3 Bft)
10/03/2007 15:00 18,8 C 31 % 1019,8 hPa 0,0 l/m 4,2 km/h (1 Bft) S-SE 1,00 h 0,381 mm 442 W/m 1,1 C 18,8 C 7,9 km/h (2 Bft)
10/03/2007 16:00 18,7 C 29 % 1020,0 hPa 0,0 l/m 2,4 km/h (1 Bft) S-SE 0,97 h 0,305 mm 266 W/m 0,1 C 18,7 C 4,1 km/h (1 Bft)
10/03/2007 17:00 17,6 C 33 % 1020,4 hPa 0,0 l/m 6,3 km/h (2 Bft) O-SO 0,50 h 0,178 mm 109 W/m 1,3 C 17,6 C 9,1 km/h (2 Bft)
10/03/2007 18:00 15,6 C 40 % 1021,4 hPa 0,0 l/m 3,7 km/h (1 Bft) O 0,05 h 0,127 mm 16 W/m 2,1 C 15,6 C 5,4 km/h (1 Bft)
10/03/2007 19:00 14,6 C 36 % 1022,3 hPa 0,0 l/m 2,1 km/h (1 Bft) S-SE 0,00 h 0,051 mm 0 W/m -0,6 C 14,6 C 3,9 km/h (1 Bft)
10/03/2007 20:00 12,9 C 38 % 1022,7 hPa 0,0 l/m 4,5 km/h (1 Bft) NO 0,00 h 0,076 mm 0 W/m -1,0 C 12,9 C 7,0 km/h (2 Bft)
10/03/2007 21:00 12,1 C 34 % 1023,0 hPa 0,0 l/m 5,9 km/h (2 Bft) NO 0,00 h 0,076 mm 0 W/m -3,4 C 12,1 C 9,0 km/h (2 Bft)
10/03/2007 22:00 11,9 C 31 % 1023,5 hPa 0,0 l/m 2,8 km/h (1 Bft) O-SO 0,00 h 0,076 mm 0 W/m -4,6 C 11,9 C 4,4 km/h (1 Bft)
10/03/2007 23:00 12,0 C 30 % 1024,0 hPa 0,0 l/m 2,4 km/h (1 Bft) S-SO 0,00 h 0,076 mm 0 W/m -5,0 C 12,0 C 3,6 km/h (1 Bft)
11/03/2007 00:00 11,3 C 32 % 1024,4 hPa 0,0 l/m 4,2 km/h (1 Bft) O-NO 0,00 h 0,076 mm 0 W/m -4,9 C 11,3 C 6,1 km/h (2 Bft)
11/03/2007 01:00 11,5 C 30 % 1024,4 hPa 0,0 l/m 3,4 km/h (1 Bft) O 0,00 h 0,076 mm 0 W/m -5,5 C 11,5 C 5,0 km/h (1 Bft)
11/03/2007 02:00 10,9 C 30 % 1024,4 hPa 0,0 l/m 3,6 km/h (1 Bft) N-NO 0,00 h 0,076 mm 0 W/m -6,1 C 10,9 C 5,3 km/h (1 Bft)
11/03/2007 03:00 10,3 C 29 % 1024,0 hPa 0,0 l/m 5,7 km/h (1 Bft) O-NO 0,00 h 0,076 mm 0 W/m -7,0 C 10,0 C 7,5 km/h (2 Bft)
11/03/2007 04:00 9,8 C 29 % 1023,9 hPa 0,0 l/m 7,4 km/h (2 Bft) O 0,00 h 0,076 mm 0 W/m -7,6 C 9,1 C 9,3 km/h (2 Bft)
11/03/2007 05:00 9,9 C 29 % 1023,8 hPa 0,0 l/m 9,3 km/h (2 Bft) O 0,00 h 0,102 mm 0 W/m -7,5 C 8,6 C 11,1 km/h (2 Bft)
11/03/2007 06:00 9,8 C 32 % 1023,8 hPa 0,0 l/m 10,1 km/h (2 Bft) O 0,00 h 0,102 mm 8 W/m -6,3 C 8,4 C 13,1 km/h (3 Bft)
11/03/2007 07:00 9,5 C 35 % 1023,6 hPa 0,0 l/m 8,4 km/h (2 Bft) O 0,33 h 0,076 mm 55 W/m -5,1 C 8,5 C 12,0 km/h (2 Bft)
11/03/2007 08:00 12,1 C 37 % 1024,1 hPa 0,0 l/m 4,3 km/h (1 Bft) O-SO 1,00 h 0,102 mm 239 W/m -2,3 C 12,1 C 6,6 km/h (2 Bft)
11/03/2007 09:00 14,2 C 38 % 1024,8 hPa 0,0 l/m 7,8 km/h (2 Bft) E 1,00 h 0,152 mm 406 W/m 0,1 C 14,2 C 12,5 km/h (3 Bft)
11/03/2007 10:00 14,8 C 37 % 1024,6 hPa 0,0 l/m 24,7 km/h (4 Bft) E-NE 1,00 h 0,279 mm 547 W/m 0,4 C 14,8 C 34,4 km/h (5 Bft)
11/03/2007 11:00 14,3 C 40 % 1024,4 hPa 0,0 l/m 24,3 km/h (4 Bft) E 0,47 h 0,483 mm 383 W/m 0,8 C 14,3 C 32,9 km/h (5 Bft)
11/03/2007 12:00 14,6 C 29 % 1024,1 hPa 0,0 l/m 20,3 km/h (4 Bft) N-NE 0,50 h 0,381 mm 403 W/m -3,8 C 14,6 C 30,6 km/h (5 Bft)
11/03/2007 13:00 16,0 C 21 % 1023,7 hPa 0,0 l/m 23,4 km/h (4 Bft) N-NE 1,00 h 0,406 mm 676 W/m -6,4 C 16,0 C 34,3 km/h (5 Bft)
11/03/2007 14:00 16,0 C 22 % 1023,8 hPa 0,0 l/m 14,9 km/h (3 Bft) N 1,00 h 0,584 mm 593 W/m -5,4 C 16,0 C 23,9 km/h (4 Bft)
11/03/2007 15:00 16,4 C 22 % 1023,5 hPa 0,0 l/m 12,3 km/h (3 Bft) NE 1,00 h 0,457 mm 467 W/m -5,3 C 16,4 C 20,6 km/h (4 Bft)
11/03/2007 16:00 15,9 C 26 % 1023,5 hPa 0,0 l/m 13,2 km/h (3 Bft) NE 1,00 h 0,381 mm 299 W/m -3,8 C 15,9 C 19,4 km/h (3 Bft)
11/03/2007 17:00 14,8 C 28 % 1023,6 hPa 0,0 l/m 6,5 km/h (2 Bft) N-NE 0,70 h 0,279 mm 113 W/m -3,7 C 14,8 C 11,2 km/h (2 Bft)
11/03/2007 18:00 12,8 C 29 % 1024,1 hPa 0,0 l/m 3,0 km/h (1 Bft) N-NO 0,10 h 0,127 mm 17 W/m -4,8 C 12,8 C 5,6 km/h (1 Bft)
11/03/2007 19:00 12,0 C 30 % 1024,5 hPa 0,0 l/m 2,7 km/h (1 Bft) SO 0,00 h 0,051 mm 0 W/m -5,2 C 12,0 C 4,0 km/h (1 Bft)
11/03/2007 20:00 11,1 C 31 % 1025,0 hPa 0,0 l/m 3,0 km/h (1 Bft) E-NE 0,00 h 0,076 mm 0 W/m -5,3 C 11,1 C 4,7 km/h (1 Bft)
11/03/2007 21:00 10,6 C 34 % 1025,2 hPa 0,0 l/m 5,3 km/h (1 Bft) O-NO 0,00 h 0,076 mm 0 W/m -4,6 C 10,6 C 8,2 km/h (2 Bft)
11/03/2007 22:00 10,3 C 36 % 1025,1 hPa 0,0 l/m 5,2 km/h (1 Bft) O-NO 0,00 h 0,076 mm 0 W/m -4,3 C 10,1 C 7,4 km/h (2 Bft)
11/03/2007 23:00 9,8 C 37 % 1025,0 hPa 0,0 l/m 6,5 km/h (2 Bft) O-NO 0,00 h 0,076 mm 0 W/m -4,1 C 9,1 C 9,3 km/h (2 Bft)
Min-Date _ 07/03/07 11/03/07 07/03/07 - 05/03/07 - - - - 11/03/07 07/03/07 05/03/07
_ Min-Heure 07:40 13:22 21:30 - 00:32 - - - - 04:57 02:27 00:33
Minimum _ 7,9 C 19 % 1002,9 hPa - 0,0 km/h (0 Bft) - - - - -8,3 C 6,6 C 0,0 km/h (0 Bft)
Max-Date _ 10/03/07 06/03/07 11/03/07 07/03/07 11/03/07 - 05/03/07 11/03/07 07/03/07 08/03/07 10/03/07 11/03/07
_ Max-Heure 13:46 20:18 21:00 02:01 10:10 - 07:12 14:00 12:04 14:31 13:46 13:07
Maximum _ 19,4 C 100 % 1025,2 hPa 2,2 l/m 37,0 km/h
E-NE (5 Bft)
- 0,02 h 0,584 mm 925 W/m 12,4 C 19,4 C 48,3 km/h
N-NE (6 Bft)
Moyenne _ 12,3 C 68 % 1017,1 hPa #9,2 l/m 5,3 km/h (1 Bft) O-NO #45:31 h #18,401 mm 269 W/m 5,7 C 12,3 C 8,1 km/h (2 Bft)
Roquefort les pins